Burriana, Spain
Current Conditions -  °F | °C
As of 7:00 PM on Tuesday 21 Oct 2014 (Local Time) from LEBT Reporting Station
Clear Clear  
Wind Chill: 90°   Ceiling: Unl
Heat Index: 90°   Visibility: 6mi
Dew Point: 41°   Wind: 5mph
Humidity: 18%   Direction: 310°NW
Pressure: 30.12"   Gusts: NA
Location:  39.89°N, 0.08°W
Report Text: LEBT 211700Z AUTO 31004KT 250V350 CAVOK 32/05 Q1020
Loading
Personal Weather Stations






























Interactive Weather Map
Tropical Storm Tracking
New forecast layout! Learn more

10-Day Weather Forecast

Advertisements
Track Severe Weather on mobile